sensor_id;sensor_type;location;lat;lon;timestamp;P1;durP1;ratioP1;P2;durP2;ratioP2
53108;SDS011;39007;53.090;6.074;2022-07-23T00:02:21;8.93;;;4.60;;
53108;SDS011;39007;53.090;6.074;2022-07-23T00:04:47;7.25;;;4.78;;
53108;SDS011;39007;53.090;6.074;2022-07-23T00:07:16;6.82;;;4.22;;
53108;SDS011;39007;53.090;6.074;2022-07-23T00:09:42;10.52;;;5.20;;
53108;SDS011;39007;53.090;6.074;2022-07-23T00:12:08;7.57;;;5.07;;
53108;SDS011;39007;53.090;6.074;2022-07-23T00:14:34;10.75;;;4.88;;
53108;SDS011;39007;53.090;6.074;2022-07-23T00:17:01;7.57;;;4.90;;
53108;SDS011;39007;53.090;6.074;2022-07-23T00:19:27;6.25;;;4.55;;
53108;SDS011;39007;53.090;6.074;2022-07-23T00:21:54;7.32;;;4.78;;
53108;SDS011;39007;53.090;6.074;2022-07-23T00:24:20;7.90;;;4.55;;
53108;SDS011;39007;53.090;6.074;2022-07-23T00:26:46;7.28;;;4.90;;
53108;SDS011;39007;53.090;6.074;2022-07-23T00:29:12;10.57;;;5.20;;
53108;SDS011;39007;53.090;6.074;2022-07-23T00:31:38;8.15;;;4.95;;
53108;SDS011;39007;53.090;6.074;2022-07-23T00:34:04;7.63;;;4.88;;
53108;SDS011;39007;53.090;6.074;2022-07-23T00:36:30;7.93;;;4.57;;
53108;SDS011;39007;53.090;6.074;2022-07-23T00:38:56;7.97;;;4.78;;
53108;SDS011;39007;53.090;6.074;2022-07-23T00:41:23;8.82;;;5.28;;
53108;SDS011;39007;53.090;6.074;2022-07-23T00:43:49;7.30;;;4.97;;
53108;SDS011;39007;53.090;6.074;2022-07-23T00:46:22;9.10;;;4.88;;
53108;SDS011;39007;53.090;6.074;2022-07-23T00:48:50;7.43;;;4.72;;
53108;SDS011;39007;53.090;6.074;2022-07-23T00:51:16;9.05;;;5.30;;
53108;SDS011;39007;53.090;6.074;2022-07-23T00:53:42;6.22;;;4.57;;
53108;SDS011;39007;53.090;6.074;2022-07-23T00:56:09;8.43;;;5.22;;
53108;SDS011;39007;53.090;6.074;2022-07-23T00:58:36;8.90;;;5.00;;
53108;SDS011;39007;53.090;6.074;2022-07-23T01:01:02;7.35;;;5.25;;
53108;SDS011;39007;53.090;6.074;2022-07-23T01:03:28;7.80;;;4.32;;
53108;SDS011;39007;53.090;6.074;2022-07-23T01:05:55;8.48;;;4.13;;
53108;SDS011;39007;53.090;6.074;2022-07-23T01:08:21;6.03;;;4.70;;
53108;SDS011;39007;53.090;6.074;2022-07-23T01:10:48;6.95;;;4.10;;
53108;SDS011;39007;53.090;6.074;2022-07-23T01:13:14;9.00;;;3.80;;
53108;SDS011;39007;53.090;6.074;2022-07-23T01:15:41;7.90;;;4.13;;
53108;SDS011;39007;53.090;6.074;2022-07-23T01:18:07;6.45;;;3.42;;
53108;SDS011;39007;53.090;6.074;2022-07-23T01:20:34;7.97;;;3.95;;
53108;SDS011;39007;53.090;6.074;2022-07-23T01:23:00;5.97;;;3.70;;
53108;SDS011;39007;53.090;6.074;2022-07-23T01:25:26;7.50;;;4.45;;
53108;SDS011;39007;53.090;6.074;2022-07-23T01:27:53;8.00;;;4.30;;
53108;SDS011;39007;53.090;6.074;2022-07-23T01:30:19;4.75;;;3.22;;
53108;SDS011;39007;53.090;6.074;2022-07-23T01:32:46;7.80;;;3.90;;
53108;SDS011;39007;53.090;6.074;2022-07-23T01:35:12;6.38;;;4.00;;
53108;SDS011;39007;53.090;6.074;2022-07-23T01:37:38;9.63;;;4.38;;
53108;SDS011;39007;53.090;6.074;2022-07-23T01:40:05;5.40;;;4.30;;
53108;SDS011;39007;53.090;6.074;2022-07-23T01:42:31;7.00;;;4.53;;
53108;SDS011;39007;53.090;6.074;2022-07-23T01:44:58;8.98;;;4.60;;
53108;SDS011;39007;53.090;6.074;2022-07-23T01:47:24;8.32;;;4.40;;
53108;SDS011;39007;53.090;6.074;2022-07-23T01:49:50;7.40;;;4.40;;
53108;SDS011;39007;53.090;6.074;2022-07-23T01:52:16;6.40;;;4.47;;
53108;SDS011;39007;53.090;6.074;2022-07-23T01:54:42;9.68;;;5.15;;
53108;SDS011;39007;53.090;6.074;2022-07-23T01:57:08;7.30;;;4.55;;
53108;SDS011;39007;53.090;6.074;2022-07-23T01:59:35;7.53;;;5.10;;
53108;SDS011;39007;53.090;6.074;2022-07-23T02:02:02;7.00;;;4.70;;
53108;SDS011;39007;53.090;6.074;2022-07-23T02:04:28;6.93;;;4.97;;
53108;SDS011;39007;53.090;6.074;2022-07-23T02:06:54;8.13;;;4.68;;
53108;SDS011;39007;53.090;6.074;2022-07-23T02:09:21;6.00;;;4.72;;
53108;SDS011;39007;53.090;6.074;2022-07-23T02:11:47;6.07;;;4.72;;
53108;SDS011;39007;53.090;6.074;2022-07-23T02:14:13;8.77;;;4.68;;
53108;SDS011;39007;53.090;6.074;2022-07-23T02:16:40;7.60;;;4.32;;
53108;SDS011;39007;53.090;6.074;2022-07-23T02:19:06;8.48;;;4.60;;
53108;SDS011;39007;53.090;6.074;2022-07-23T02:21:32;6.38;;;4.65;;
53108;SDS011;39007;53.090;6.074;2022-07-23T02:23:58;7.10;;;4.63;;
53108;SDS011;39007;53.090;6.074;2022-07-23T02:26:24;6.30;;;4.45;;
53108;SDS011;39007;53.090;6.074;2022-07-23T02:28:50;8.32;;;5.40;;
53108;SDS011;39007;53.090;6.074;2022-07-23T02:31:18;8.70;;;4.95;;
53108;SDS011;39007;53.090;6.074;2022-07-23T02:33:44;7.18;;;4.60;;
53108;SDS011;39007;53.090;6.074;2022-07-23T02:36:10;6.22;;;4.38;;
53108;SDS011;39007;53.090;6.074;2022-07-23T02:38:36;6.18;;;4.72;;
53108;SDS011;39007;53.090;6.074;2022-07-23T02:41:02;5.25;;;4.18;;
53108;SDS011;39007;53.090;6.074;2022-07-23T02:43:28;7.28;;;4.65;;
53108;SDS011;39007;53.090;6.074;2022-07-23T02:45:54;6.97;;;4.72;;
53108;SDS011;39007;53.090;6.074;2022-07-23T02:48:21;6.38;;;4.65;;
53108;SDS011;39007;53.090;6.074;2022-07-23T02:50:47;7.35;;;4.20;;
53108;SDS011;39007;53.090;6.074;2022-07-23T02:53:13;7.97;;;4.30;;
53108;SDS011;39007;53.090;6.074;2022-07-23T02:55:39;6.40;;;4.53;;
53108;SDS011;39007;53.090;6.074;2022-07-23T02:58:05;6.10;;;4.20;;
53108;SDS011;39007;53.090;6.074;2022-07-23T03:00:31;7.40;;;4.75;;
53108;SDS011;39007;53.090;6.074;2022-07-23T03:02:57;9.07;;;4.75;;
53108;SDS011;39007;53.090;6.074;2022-07-23T03:05:23;8.35;;;5.10;;
53108;SDS011;39007;53.090;6.074;2022-07-23T03:07:50;6.57;;;4.78;;
53108;SDS011;39007;53.090;6.074;2022-07-23T03:10:16;8.60;;;4.90;;
53108;SDS011;39007;53.090;6.074;2022-07-23T03:12:42;6.18;;;4.60;;
53108;SDS011;39007;53.090;6.074;2022-07-23T03:15:08;6.75;;;4.85;;
53108;SDS011;39007;53.090;6.074;2022-07-23T03:17:34;7.80;;;4.97;;
53108;SDS011;39007;53.090;6.074;2022-07-23T03:20:00;8.65;;;4.75;;
53108;SDS011;39007;53.090;6.074;2022-07-23T03:22:27;7.70;;;4.82;;
53108;SDS011;39007;53.090;6.074;2022-07-23T03:24:53;7.97;;;5.00;;
53108;SDS011;39007;53.090;6.074;2022-07-23T03:27:23;8.55;;;5.05;;
53108;SDS011;39007;53.090;6.074;2022-07-23T03:29:50;6.85;;;4.90;;
53108;SDS011;39007;53.090;6.074;2022-07-23T03:32:16;8.05;;;4.80;;
53108;SDS011;39007;53.090;6.074;2022-07-23T03:34:42;6.80;;;4.85;;
53108;SDS011;39007;53.090;6.074;2022-07-23T03:37:08;6.75;;;4.45;;
53108;SDS011;39007;53.090;6.074;2022-07-23T03:39:34;6.30;;;4.50;;
53108;SDS011;39007;53.090;6.074;2022-07-23T03:42:00;7.03;;;4.32;;
53108;SDS011;39007;53.090;6.074;2022-07-23T03:44:26;5.90;;;4.43;;
53108;SDS011;39007;53.090;6.074;2022-07-23T03:46:53;8.27;;;4.38;;
53108;SDS011;39007;53.090;6.074;2022-07-23T03:49:19;5.63;;;4.10;;
53108;SDS011;39007;53.090;6.074;2022-07-23T03:51:45;5.50;;;4.13;;
53108;SDS011;39007;53.090;6.074;2022-07-23T03:54:11;5.57;;;4.00;;
53108;SDS011;39007;53.090;6.074;2022-07-23T03:56:37;5.55;;;4.00;;
53108;SDS011;39007;53.090;6.074;2022-07-23T03:59:03;7.22;;;4.20;;
53108;SDS011;39007;53.090;6.074;2022-07-23T04:01:29;5.00;;;3.95;;
53108;SDS011;39007;53.090;6.074;2022-07-23T04:03:56;5.85;;;4.22;;
53108;SDS011;39007;53.090;6.074;2022-07-23T04:06:22;5.75;;;4.10;;
53108;SDS011;39007;53.090;6.074;2022-07-23T04:08:48;8.40;;;4.32;;
53108;SDS011;39007;53.090;6.074;2022-07-23T04:11:14;7.20;;;4.60;;
53108;SDS011;39007;53.090;6.074;2022-07-23T04:13:40;6.95;;;4.50;;
53108;SDS011;39007;53.090;6.074;2022-07-23T04:16:06;9.30;;;4.32;;
53108;SDS011;39007;53.090;6.074;2022-07-23T04:18:33;7.85;;;4.40;;
53108;SDS011;39007;53.090;6.074;2022-07-23T04:20:59;7.45;;;4.40;;
53108;SDS011;39007;53.090;6.074;2022-07-23T04:23:25;7.65;;;4.10;;
53108;SDS011;39007;53.090;6.074;2022-07-23T04:25:51;6.18;;;4.40;;
53108;SDS011;39007;53.090;6.074;2022-07-23T04:28:18;6.68;;;4.55;;
53108;SDS011;39007;53.090;6.074;2022-07-23T04:30:44;6.80;;;4.78;;
53108;SDS011;39007;53.090;6.074;2022-07-23T04:33:10;7.47;;;4.70;;
53108;SDS011;39007;53.090;6.074;2022-07-23T04:35:36;7.95;;;4.82;;
53108;SDS011;39007;53.090;6.074;2022-07-23T04:38:03;8.00;;;5.10;;
53108;SDS011;39007;53.090;6.074;2022-07-23T04:40:29;7.95;;;4.53;;
53108;SDS011;39007;53.090;6.074;2022-07-23T04:42:57;8.27;;;4.80;;
53108;SDS011;39007;53.090;6.074;2022-07-23T04:45:23;7.30;;;5.30;;
53108;SDS011;39007;53.090;6.074;2022-07-23T04:47:50;8.02;;;5.05;;
53108;SDS011;39007;53.090;6.074;2022-07-23T04:50:16;10.38;;;5.70;;
53108;SDS011;39007;53.090;6.074;2022-07-23T04:52:46;7.40;;;5.25;;
53108;SDS011;39007;53.090;6.074;2022-07-23T04:55:12;9.40;;;5.15;;
53108;SDS011;39007;53.090;6.074;2022-07-23T04:57:38;7.30;;;5.20;;
53108;SDS011;39007;53.090;6.074;2022-07-23T05:00:05;6.57;;;4.72;;
53108;SDS011;39007;53.090;6.074;2022-07-23T05:02:32;6.57;;;4.55;;
53108;SDS011;39007;53.090;6.074;2022-07-23T05:04:58;9.25;;;4.93;;
53108;SDS011;39007;53.090;6.074;2022-07-23T05:07:24;6.90;;;4.80;;
53108;SDS011;39007;53.090;6.074;2022-07-23T05:09:50;9.40;;;5.45;;
53108;SDS011;39007;53.090;6.074;2022-07-23T05:12:16;7.28;;;5.15;;
53108;SDS011;39007;53.090;6.074;2022-07-23T05:14:42;7.13;;;5.10;;
53108;SDS011;39007;53.090;6.074;2022-07-23T05:17:08;7.97;;;5.15;;
53108;SDS011;39007;53.090;6.074;2022-07-23T05:19:34;7.85;;;5.30;;
53108;SDS011;39007;53.090;6.074;2022-07-23T05:22:01;6.68;;;5.38;;
53108;SDS011;39007;53.090;6.074;2022-07-23T05:24:27;6.85;;;5.15;;
53108;SDS011;39007;53.090;6.074;2022-07-23T05:26:53;8.48;;;5.60;;
53108;SDS011;39007;53.090;6.074;2022-07-23T05:29:19;8.98;;;5.00;;
53108;SDS011;39007;53.090;6.074;2022-07-23T05:31:45;9.73;;;5.63;;
53108;SDS011;39007;53.090;6.074;2022-07-23T05:34:12;6.35;;;5.32;;
53108;SDS011;39007;53.090;6.074;2022-07-23T05:36:38;7.22;;;5.03;;
53108;SDS011;39007;53.090;6.074;2022-07-23T05:39:04;10.55;;;5.55;;
53108;SDS011;39007;53.090;6.074;2022-07-23T05:41:30;8.07;;;5.00;;
53108;SDS011;39007;53.090;6.074;2022-07-23T05:43:56;8.40;;;4.90;;
53108;SDS011;39007;53.090;6.074;2022-07-23T05:46:25;9.00;;;5.18;;
53108;SDS011;39007;53.090;6.074;2022-07-23T05:48:51;9.10;;;4.53;;
53108;SDS011;39007;53.090;6.074;2022-07-23T05:51:21;8.98;;;4.90;;
53108;SDS011;39007;53.090;6.074;2022-07-23T05:53:47;8.05;;;4.55;;
53108;SDS011;39007;53.090;6.074;2022-07-23T05:56:13;6.68;;;4.10;;
53108;SDS011;39007;53.090;6.074;2022-07-23T05:58:40;8.57;;;5.03;;
53108;SDS011;39007;53.090;6.074;2022-07-23T06:01:06;5.43;;;4.18;;
53108;SDS011;39007;53.090;6.074;2022-07-23T06:03:32;7.32;;;4.35;;
53108;SDS011;39007;53.090;6.074;2022-07-23T06:05:58;7.90;;;4.25;;
53108;SDS011;39007;53.090;6.074;2022-07-23T06:08:24;7.47;;;3.95;;
53108;SDS011;39007;53.090;6.074;2022-07-23T06:10:50;6.13;;;4.18;;
53108;SDS011;39007;53.090;6.074;2022-07-23T06:13:17;8.63;;;4.65;;
53108;SDS011;39007;53.090;6.074;2022-07-23T06:15:43;8.80;;;4.07;;
53108;SDS011;39007;53.090;6.074;2022-07-23T06:18:09;6.03;;;3.67;;
53108;SDS011;39007;53.090;6.074;2022-07-23T06:20:36;8.02;;;3.30;;
53108;SDS011;39007;53.090;6.074;2022-07-23T06:23:02;6.75;;;2.90;;
53108;SDS011;39007;53.090;6.074;2022-07-23T06:25:28;5.07;;;2.65;;
53108;SDS011;39007;53.090;6.074;2022-07-23T06:27:54;4.70;;;2.00;;
53108;SDS011;39007;53.090;6.074;2022-07-23T06:30:20;5.82;;;1.73;;
53108;SDS011;39007;53.090;6.074;2022-07-23T06:32:48;3.95;;;1.70;;
53108;SDS011;39007;53.090;6.074;2022-07-23T06:35:14;4.82;;;1.80;;
53108;SDS011;39007;53.090;6.074;2022-07-23T06:37:41;4.85;;;1.80;;
53108;SDS011;39007;53.090;6.074;2022-07-23T06:40:07;5.82;;;1.60;;
53108;SDS011;39007;53.090;6.074;2022-07-23T06:42:33;3.80;;;1.38;;
53108;SDS011;39007;53.090;6.074;2022-07-23T06:45:02;1.38;;;1.05;;
53108;SDS011;39007;53.090;6.074;2022-07-23T06:47:28;6.72;;;1.35;;
53108;SDS011;39007;53.090;6.074;2022-07-23T06:49:54;4.47;;;1.45;;
53108;SDS011;39007;53.090;6.074;2022-07-23T06:52:21;4.95;;;1.48;;
53108;SDS011;39007;53.090;6.074;2022-07-23T06:54:47;3.78;;;1.25;;
53108;SDS011;39007;53.090;6.074;2022-07-23T06:57:14;7.28;;;1.33;;
53108;SDS011;39007;53.090;6.074;2022-07-23T06:59:40;3.90;;;1.40;;
53108;SDS011;39007;53.090;6.074;2022-07-23T07:02:07;2.53;;;1.20;;
53108;SDS011;39007;53.090;6.074;2022-07-23T07:04:33;3.00;;;1.10;;
53108;SDS011;39007;53.090;6.074;2022-07-23T07:06:59;2.10;;;1.02;;
53108;SDS011;39007;53.090;6.074;2022-07-23T07:09:25;2.70;;;1.02;;
53108;SDS011;39007;53.090;6.074;2022-07-23T07:11:51;3.08;;;0.90;;
53108;SDS011;39007;53.090;6.074;2022-07-23T07:14:18;3.63;;;1.08;;
53108;SDS011;39007;53.090;6.074;2022-07-23T07:16:44;2.50;;;0.90;;
53108;SDS011;39007;53.090;6.074;2022-07-23T07:19:10;2.42;;;1.00;;
53108;SDS011;39007;53.090;6.074;2022-07-23T07:21:36;2.97;;;1.00;;
53108;SDS011;39007;53.090;6.074;2022-07-23T07:24:02;2.28;;;0.95;;
53108;SDS011;39007;53.090;6.074;2022-07-23T07:26:29;1.33;;;0.70;;
53108;SDS011;39007;53.090;6.074;2022-07-23T07:28:56;3.95;;;1.00;;
53108;SDS011;39007;53.090;6.074;2022-07-23T07:31:22;2.50;;;0.80;;
53108;SDS011;39007;53.090;6.074;2022-07-23T07:33:48;2.25;;;0.60;;
53108;SDS011;39007;53.090;6.074;2022-07-23T07:36:14;2.38;;;0.90;;
53108;SDS011;39007;53.090;6.074;2022-07-23T07:38:40;2.67;;;0.90;;
53108;SDS011;39007;53.090;6.074;2022-07-23T07:41:07;4.85;;;1.70;;
53108;SDS011;39007;53.090;6.074;2022-07-23T07:43:35;1.95;;;0.98;;
53108;SDS011;39007;53.090;6.074;2022-07-23T07:46:01;1.98;;;0.98;;
53108;SDS011;39007;53.090;6.074;2022-07-23T07:48:27;1.73;;;1.00;;
53108;SDS011;39007;53.090;6.074;2022-07-23T07:50:53;0.68;;;0.60;;
53108;SDS011;39007;53.090;6.074;2022-07-23T07:53:20;1.85;;;0.93;;
53108;SDS011;39007;53.090;6.074;2022-07-23T07:55:46;2.45;;;1.02;;
53108;SDS011;39007;53.090;6.074;2022-07-23T07:58:12;3.03;;;0.85;;
53108;SDS011;39007;53.090;6.074;2022-07-23T08:00:38;2.15;;;0.77;;
53108;SDS011;39007;53.090;6.074;2022-07-23T08:03:04;3.88;;;1.00;;
53108;SDS011;39007;53.090;6.074;2022-07-23T08:05:30;3.58;;;1.00;;
53108;SDS011;39007;53.090;6.074;2022-07-23T08:07:57;2.17;;;0.95;;
53108;SDS011;39007;53.090;6.074;2022-07-23T08:10:24;3.45;;;0.90;;
53108;SDS011;39007;53.090;6.074;2022-07-23T08:12:51;1.25;;;0.70;;
53108;SDS011;39007;53.090;6.074;2022-07-23T08:15:22;2.15;;;1.00;;
53108;SDS011;39007;53.090;6.074;2022-07-23T08:17:48;4.32;;;0.82;;
53108;SDS011;39007;53.090;6.074;2022-07-23T08:20:15;2.85;;;1.10;;
53108;SDS011;39007;53.090;6.074;2022-07-23T08:25:08;3.15;;;1.10;;
53108;SDS011;39007;53.090;6.074;2022-07-23T08:27:35;2.38;;;1.00;;
53108;SDS011;39007;53.090;6.074;2022-07-23T08:30:01;2.05;;;0.90;;
53108;SDS011;39007;53.090;6.074;2022-07-23T08:32:27;3.65;;;1.23;;
53108;SDS011;39007;53.090;6.074;2022-07-23T08:34:53;3.40;;;0.93;;
53108;SDS011;39007;53.090;6.074;2022-07-23T08:37:19;2.42;;;0.80;;
53108;SDS011;39007;53.090;6.074;2022-07-23T08:39:46;3.85;;;1.00;;
53108;SDS011;39007;53.090;6.074;2022-07-23T08:42:13;4.20;;;0.98;;
53108;SDS011;39007;53.090;6.074;2022-07-23T08:44:44;2.92;;;0.88;;
53108;SDS011;39007;53.090;6.074;2022-07-23T08:47:11;1.83;;;0.98;;
53108;SDS011;39007;53.090;6.074;2022-07-23T08:49:38;3.38;;;1.00;;
53108;SDS011;39007;53.090;6.074;2022-07-23T08:52:04;1.70;;;0.95;;
53108;SDS011;39007;53.090;6.074;2022-07-23T08:54:33;2.55;;;0.93;;
53108;SDS011;39007;53.090;6.074;2022-07-23T08:57:00;5.22;;;1.02;;
53108;SDS011;39007;53.090;6.074;2022-07-23T08:59:26;2.50;;;0.90;;
53108;SDS011;39007;53.090;6.074;2022-07-23T09:01:52;2.20;;;0.95;;
53108;SDS011;39007;53.090;6.074;2022-07-23T09:04:18;0.93;;;0.73;;
53108;SDS011;39007;53.090;6.074;2022-07-23T09:06:44;4.22;;;0.88;;
53108;SDS011;39007;53.090;6.074;2022-07-23T09:09:18;2.97;;;1.05;;
53108;SDS011;39007;53.090;6.074;2022-07-23T09:11:47;3.60;;;1.10;;
53108;SDS011;39007;53.090;6.074;2022-07-23T09:14:14;2.60;;;1.05;;
53108;SDS011;39007;53.090;6.074;2022-07-23T09:16:40;2.28;;;0.80;;
53108;SDS011;39007;53.090;6.074;2022-07-23T09:19:06;4.03;;;1.00;;
53108;SDS011;39007;53.090;6.074;2022-07-23T09:21:37;3.60;;;0.93;;
53108;SDS011;39007;53.090;6.074;2022-07-23T09:24:07;3.47;;;1.02;;
53108;SDS011;39007;53.090;6.074;2022-07-23T09:26:38;2.10;;;1.10;;
53108;SDS011;39007;53.090;6.074;2022-07-23T09:36:47;2.72;;;1.10;;
53108;SDS011;39007;53.090;6.074;2022-07-23T09:39:14;2.65;;;1.00;;
53108;SDS011;39007;53.090;6.074;2022-07-23T09:41:42;4.80;;;1.20;;
53108;SDS011;39007;53.090;6.074;2022-07-23T09:44:09;3.15;;;1.00;;
53108;SDS011;39007;53.090;6.074;2022-07-23T09:46:35;3.35;;;1.00;;
53108;SDS011;39007;53.090;6.074;2022-07-23T09:49:09;6.00;;;1.20;;
53108;SDS011;39007;53.090;6.074;2022-07-23T09:51:43;3.75;;;0.90;;
53108;SDS011;39007;53.090;6.074;2022-07-23T09:54:19;2.95;;;1.10;;
53108;SDS011;39007;53.090;6.074;2022-07-23T09:56:47;3.85;;;1.10;;
53108;SDS011;39007;53.090;6.074;2022-07-23T09:59:14;2.83;;;1.05;;
53108;SDS011;39007;53.090;6.074;2022-07-23T10:01:44;2.95;;;0.95;;
53108;SDS011;39007;53.090;6.074;2022-07-23T10:04:11;1.52;;;0.82;;
53108;SDS011;39007;53.090;6.074;2022-07-23T10:06:40;4.43;;;1.13;;
53108;SDS011;39007;53.090;6.074;2022-07-23T10:09:09;8.15;;;1.30;;
53108;SDS011;39007;53.090;6.074;2022-07-23T10:11:36;4.05;;;1.20;;
53108;SDS011;39007;53.090;6.074;2022-07-23T10:14:03;3.50;;;1.20;;
53108;SDS011;39007;53.090;6.074;2022-07-23T10:16:30;3.80;;;1.23;;
53108;SDS011;39007;53.090;6.074;2022-07-23T10:18:57;5.32;;;1.38;;
53108;SDS011;39007;53.090;6.074;2022-07-23T10:24:04;3.63;;;1.27;;
53108;SDS011;39007;53.090;6.074;2022-07-23T10:26:46;3.53;;;1.55;;
53108;SDS011;39007;53.090;6.074;2022-07-23T10:32:02;4.68;;;1.55;;
53108;SDS011;39007;53.090;6.074;2022-07-23T10:34:34;4.88;;;1.30;;
53108;SDS011;39007;53.090;6.074;2022-07-23T10:37:21;4.85;;;1.40;;
53108;SDS011;39007;53.090;6.074;2022-07-23T10:42:36;4.13;;;1.27;;
53108;SDS011;39007;53.090;6.074;2022-07-23T10:45:21;2.80;;;1.40;;
53108;SDS011;39007;53.090;6.074;2022-07-23T10:47:48;3.83;;;1.57;;
53108;SDS011;39007;53.090;6.074;2022-07-23T10:50:19;5.13;;;1.60;;
53108;SDS011;39007;53.090;6.074;2022-07-23T10:58:00;3.88;;;1.70;;
53108;SDS011;39007;53.090;6.074;2022-07-23T11:00:30;2.97;;;1.25;;
53108;SDS011;39007;53.090;6.074;2022-07-23T11:02:58;4.63;;;1.55;;
53108;SDS011;39007;53.090;6.074;2022-07-23T11:05:25;3.80;;;1.50;;
53108;SDS011;39007;53.090;6.074;2022-07-23T11:10:34;5.20;;;2.90;;
53108;SDS011;39007;53.090;6.074;2022-07-23T11:32:45;3.45;;;1.80;;
53108;SDS011;39007;53.090;6.074;2022-07-23T11:34:47;6.63;;;1.70;;
53108;SDS011;39007;53.090;6.074;2022-07-23T11:37:27;6.05;;;1.40;;
53108;SDS011;39007;53.090;6.074;2022-07-23T11:39:55;5.95;;;1.60;;
53108;SDS011;39007;53.090;6.074;2022-07-23T11:42:21;3.97;;;1.73;;
53108;SDS011;39007;53.090;6.074;2022-07-23T11:44:49;3.67;;;1.50;;
53108;SDS011;39007;53.090;6.074;2022-07-23T11:47:20;9.35;;;1.95;;
53108;SDS011;39007;53.090;6.074;2022-07-23T11:49:53;4.47;;;1.80;;
53108;SDS011;39007;53.090;6.074;2022-07-23T11:52:19;5.70;;;1.55;;
53108;SDS011;39007;53.090;6.074;2022-07-23T11:54:47;5.05;;;1.60;;
53108;SDS011;39007;53.090;6.074;2022-07-23T11:57:13;5.13;;;1.70;;
53108;SDS011;39007;53.090;6.074;2022-07-23T11:59:39;3.88;;;1.65;;
53108;SDS011;39007;53.090;6.074;2022-07-23T12:02:06;4.00;;;1.80;;
53108;SDS011;39007;53.090;6.074;2022-07-23T12:04:45;4.90;;;1.48;;
53108;SDS011;39007;53.090;6.074;2022-07-23T12:07:24;3.33;;;1.50;;
53108;SDS011;39007;53.090;6.074;2022-07-23T12:09:50;4.55;;;1.75;;
53108;SDS011;39007;53.090;6.074;2022-07-23T12:12:17;4.00;;;1.73;;
53108;SDS011;39007;53.090;6.074;2022-07-23T12:17:18;3.83;;;1.67;;
53108;SDS011;39007;53.090;6.074;2022-07-23T12:19:45;4.53;;;1.95;;
53108;SDS011;39007;53.090;6.074;2022-07-23T12:22:11;5.93;;;1.50;;
53108;SDS011;39007;53.090;6.074;2022-07-23T12:24:55;6.75;;;2.05;;
53108;SDS011;39007;53.090;6.074;2022-07-23T12:27:21;5.85;;;1.40;;
53108;SDS011;39007;53.090;6.074;2022-07-23T12:29:48;6.95;;;1.70;;
53108;SDS011;39007;53.090;6.074;2022-07-23T12:32:25;4.40;;;1.95;;
53108;SDS011;39007;53.090;6.074;2022-07-23T12:35:13;6.47;;;1.85;;
53108;SDS011;39007;53.090;6.074;2022-07-23T12:37:39;4.63;;;1.70;;
53108;SDS011;39007;53.090;6.074;2022-07-23T12:40:18;3.40;;;1.60;;
53108;SDS011;39007;53.090;6.074;2022-07-23T12:42:46;5.25;;;1.83;;
53108;SDS011;39007;53.090;6.074;2022-07-23T12:45:12;4.22;;;1.80;;
53108;SDS011;39007;53.090;6.074;2022-07-23T12:53:26;3.70;;;1.80;;
53108;SDS011;39007;53.090;6.074;2022-07-23T12:58:25;4.57;;;1.70;;
53108;SDS011;39007;53.090;6.074;2022-07-23T13:04:21;7.53;;;1.98;;
53108;SDS011;39007;53.090;6.074;2022-07-23T13:06:16;4.17;;;1.80;;
53108;SDS011;39007;53.090;6.074;2022-07-23T13:08:42;6.38;;;1.90;;
53108;SDS011;39007;53.090;6.074;2022-07-23T13:11:08;4.00;;;1.90;;
53108;SDS011;39007;53.090;6.074;2022-07-23T13:13:34;5.75;;;1.90;;
53108;SDS011;39007;53.090;6.074;2022-07-23T13:16:01;4.45;;;1.90;;
53108;SDS011;39007;53.090;6.074;2022-07-23T13:18:28;5.45;;;2.10;;
53108;SDS011;39007;53.090;6.074;2022-07-23T13:20:54;3.83;;;2.00;;
53108;SDS011;39007;53.090;6.074;2022-07-23T13:23:21;4.00;;;2.15;;
53108;SDS011;39007;53.090;6.074;2022-07-23T13:25:47;4.75;;;1.80;;
53108;SDS011;39007;53.090;6.074;2022-07-23T13:28:13;5.25;;;1.50;;
53108;SDS011;39007;53.090;6.074;2022-07-23T13:30:40;5.90;;;2.10;;
53108;SDS011;39007;53.090;6.074;2022-07-23T13:33:07;4.25;;;1.90;;
53108;SDS011;39007;53.090;6.074;2022-07-23T13:35:34;5.05;;;1.80;;
53108;SDS011;39007;53.090;6.074;2022-07-23T13:38:00;3.80;;;2.15;;
53108;SDS011;39007;53.090;6.074;2022-07-23T13:40:26;4.03;;;1.92;;
53108;SDS011;39007;53.090;6.074;2022-07-23T13:42:52;5.07;;;1.85;;
53108;SDS011;39007;53.090;6.074;2022-07-23T13:45:19;5.30;;;1.90;;
53108;SDS011;39007;53.090;6.074;2022-07-23T13:47:45;4.70;;;2.17;;
53108;SDS011;39007;53.090;6.074;2022-07-23T13:50:11;5.53;;;2.00;;
53108;SDS011;39007;53.090;6.074;2022-07-23T13:52:37;5.22;;;1.90;;
53108;SDS011;39007;53.090;6.074;2022-07-23T13:55:04;6.82;;;1.90;;
53108;SDS011;39007;53.090;6.074;2022-07-23T13:57:31;5.38;;;1.60;;
53108;SDS011;39007;53.090;6.074;2022-07-23T13:59:58;4.43;;;1.60;;
53108;SDS011;39007;53.090;6.074;2022-07-23T14:02:24;4.95;;;1.70;;
53108;SDS011;39007;53.090;6.074;2022-07-23T14:04:51;3.78;;;1.38;;
53108;SDS011;39007;53.090;6.074;2022-07-23T14:07:17;3.00;;;1.40;;
53108;SDS011;39007;53.090;6.074;2022-07-23T14:09:44;4.35;;;1.60;;
53108;SDS011;39007;53.090;6.074;2022-07-23T14:12:10;3.10;;;1.50;;
53108;SDS011;39007;53.090;6.074;2022-07-23T14:14:36;4.00;;;1.55;;
53108;SDS011;39007;53.090;6.074;2022-07-23T14:17:02;3.78;;;1.73;;
53108;SDS011;39007;53.090;6.074;2022-07-23T14:19:28;4.55;;;2.00;;
53108;SDS011;39007;53.090;6.074;2022-07-23T14:21:54;4.07;;;1.90;;
53108;SDS011;39007;53.090;6.074;2022-07-23T14:24:20;3.55;;;1.55;;
53108;SDS011;39007;53.090;6.074;2022-07-23T14:26:46;2.25;;;1.50;;
53108;SDS011;39007;53.090;6.074;2022-07-23T14:29:13;3.95;;;1.88;;
53108;SDS011;39007;53.090;6.074;2022-07-23T14:31:39;6.35;;;2.17;;
53108;SDS011;39007;53.090;6.074;2022-07-23T14:34:05;3.72;;;1.80;;
53108;SDS011;39007;53.090;6.074;2022-07-23T14:36:31;5.22;;;1.90;;
53108;SDS011;39007;53.090;6.074;2022-07-23T14:38:57;3.40;;;1.60;;
53108;SDS011;39007;53.090;6.074;2022-07-23T14:41:23;6.43;;;1.80;;
53108;SDS011;39007;53.090;6.074;2022-07-23T14:43:49;4.43;;;1.80;;
53108;SDS011;39007;53.090;6.074;2022-07-23T14:46:15;2.70;;;1.42;;
53108;SDS011;39007;53.090;6.074;2022-07-23T14:48:41;4.85;;;1.75;;
53108;SDS011;39007;53.090;6.074;2022-07-23T14:51:08;5.15;;;1.92;;
53108;SDS011;39007;53.090;6.074;2022-07-23T14:53:34;4.03;;;1.85;;
53108;SDS011;39007;53.090;6.074;2022-07-23T14:56:00;6.63;;;1.90;;
53108;SDS011;39007;53.090;6.074;2022-07-23T14:58:27;5.50;;;1.90;;
53108;SDS011;39007;53.090;6.074;2022-07-23T15:00:54;6.07;;;2.15;;
53108;SDS011;39007;53.090;6.074;2022-07-23T15:03:21;5.00;;;1.85;;
53108;SDS011;39007;53.090;6.074;2022-07-23T15:05:47;6.57;;;1.88;;
53108;SDS011;39007;53.090;6.074;2022-07-23T15:08:13;4.00;;;1.67;;
53108;SDS011;39007;53.090;6.074;2022-07-23T15:10:39;4.57;;;1.67;;
53108;SDS011;39007;53.090;6.074;2022-07-23T15:13:05;4.82;;;1.90;;
53108;SDS011;39007;53.090;6.074;2022-07-23T15:15:31;5.80;;;2.22;;
53108;SDS011;39007;53.090;6.074;2022-07-23T15:17:58;5.40;;;2.28;;
53108;SDS011;39007;53.090;6.074;2022-07-23T15:20:24;3.58;;;1.90;;
53108;SDS011;39007;53.090;6.074;2022-07-23T15:22:50;4.13;;;1.90;;
53108;SDS011;39007;53.090;6.074;2022-07-23T15:25:16;4.32;;;1.83;;
53108;SDS011;39007;53.090;6.074;2022-07-23T15:27:43;3.60;;;1.60;;
53108;SDS011;39007;53.090;6.074;2022-07-23T15:30:09;4.18;;;1.98;;
53108;SDS011;39007;53.090;6.074;2022-07-23T15:32:36;11.75;;;2.00;;
53108;SDS011;39007;53.090;6.074;2022-07-23T15:35:02;3.80;;;1.77;;
53108;SDS011;39007;53.090;6.074;2022-07-23T15:37:31;4.75;;;2.00;;
53108;SDS011;39007;53.090;6.074;2022-07-23T15:39:58;3.90;;;1.90;;
53108;SDS011;39007;53.090;6.074;2022-07-23T15:42:24;5.22;;;2.13;;
53108;SDS011;39007;53.090;6.074;2022-07-23T15:44:50;5.20;;;1.85;;
53108;SDS011;39007;53.090;6.074;2022-07-23T15:47:17;3.97;;;1.92;;